Bookmark and Share
Track history (hours):
 

Ben

Last reported at 2014-Apr-13 19:28 UTC. Time now 2014-Apr-16 05:17 UTC.
Position N 01°13' E 103°39'.

Length 127 m; draft 5.7 m.

Type: Tanker. MMSI: 565611000.

NotesDate/timePositionNaut miles runAvg speedWind from/ knotsBaromVisibWave heightAir tempDewpointWater temp
2014-Apr-13 19:28N 01°13' E 103°39'0 0.0
2014-Apr-13 15:16N 01°13' E 103°39'2 2.8
2014-Apr-13 14:31N 01°12' E 103°39'3 3.1
2014-Apr-13 13:26N 01°10' E 103°42'  
2014-Apr-09 06:32N 01°15' E 103°46'1 0.1
2014-Apr-08 21:15N 01°14' E 103°45'0 0.0
2014-Apr-08 17:12N 01°14' E 103°45'0 0.1
2014-Apr-08 16:32N 01°14' E 103°45'1 1.2
2014-Apr-08 15:33N 01°15' E 103°46'4 0.2
2014-Apr-07 19:32N 01°12' E 103°48'10 3.1
2014-Apr-07 16:23N 01°13' E 103°39'0 0.0
2014-Apr-07 15:32N 01°13' E 103°39'0 0.0
2014-Apr-07 14:26N 01°13' E 103°39'0 0.0
2014-Apr-07 12:17N 01°13' E 103°39'0 0.0
2014-Apr-07 10:17N 01°13' E 103°39'0 0.1
2014-Apr-07 09:23N 01°13' E 103°39'0 0.1
2014-Apr-07 08:27N 01°13' E 103°39'2 2.2
2014-Apr-07 07:33N 01°12' E 103°40'12 8.8
2014-Apr-07 06:15N 01°12' E 103°52'  

Dump ship's entire track history

sailing weather and tide predictions

Ben — 9VJM4 — position and weather